Terminal Aerodrome Forecast
Issued by NWS

Home | Current Version | Previous Version | Text Only | Print | Product List | Glossary On
Versions: 1 2 3 4 5 6 7 8 9 10 11 12 13 14 15 16 17 18 19 20
000
FTUS46 KMTR 050157 AAA
TAFMRY
TAF AMD
KMRY 050157Z 0502/0524 25004KT P6SM OVC007
     FM050600 24003KT 6SM BR OVC003
     FM051700 VRB04KT P6SM SCT007
     FM051800 29009KT P6SM FEW012=

USA.gov is the U.S. government's official web portal to all federal, state and local government web resources and services.